createdAt,value
2018-06-23T00:00:31.419Z,10.34
2018-06-23T00:01:31.448Z,10.33
2018-06-23T00:02:31.479Z,10.61
2018-06-23T00:03:31.512Z,10.52
2018-06-23T00:04:31.541Z,10.55
2018-06-23T00:05:31.578Z,10.59
2018-06-23T00:06:31.607Z,10.63
2018-06-23T00:07:31.633Z,10.63
2018-06-23T00:08:31.664Z,10.61
2018-06-23T00:09:31.697Z,10.60
2018-06-23T00:10:31.725Z,10.59
2018-06-23T00:11:31.756Z,10.63
2018-06-23T00:12:31.785Z,10.45
2018-06-23T00:13:31.817Z,10.48
2018-06-23T00:14:31.847Z,10.40
2018-06-23T00:15:31.878Z,10.42
2018-06-23T00:16:31.909Z,10.41
2018-06-23T00:17:31.940Z,10.32
2018-06-23T00:18:31.970Z,10.36
2018-06-23T00:19:32.001Z,10.34
2018-06-23T00:20:32.032Z,10.40
2018-06-23T00:21:32.061Z,10.36
2018-06-23T00:22:32.093Z,10.18
2018-06-23T00:23:32.122Z,10.17
2018-06-23T00:24:32.153Z,10.14
2018-06-23T00:25:32.185Z,10.09
2018-06-23T00:26:32.215Z,10.15
2018-06-23T00:27:32.260Z,10.12
2018-06-23T00:28:32.276Z,10.26
2018-06-23T00:29:32.306Z,10.17
2018-06-23T00:30:32.337Z,10.20
2018-06-23T00:31:32.368Z,10.18
2018-06-23T00:32:32.397Z,10.26
2018-06-23T00:33:32.429Z,10.27
2018-06-23T00:34:32.459Z,10.23
2018-06-23T00:35:32.490Z,10.20
2018-06-23T00:36:32.521Z,10.17
2018-06-23T00:37:32.550Z,10.32
2018-06-23T00:38:32.581Z,10.32
2018-06-23T00:39:32.610Z,10.25
2018-06-23T00:40:32.643Z,10.18
2018-06-23T00:41:32.672Z,10.22
2018-06-23T00:42:32.702Z,10.15
2018-06-23T00:43:32.733Z,10.18
2018-06-23T00:44:32.764Z,10.18
2018-06-23T00:45:32.793Z,10.22
2018-06-23T00:46:32.825Z,10.33
2018-06-23T00:47:32.855Z,10.25
2018-06-23T00:48:32.886Z,10.22
2018-06-23T00:49:32.915Z,10.26
2018-06-23T00:50:32.946Z,10.17
2018-06-23T00:51:32.979Z,10.07
2018-06-23T00:52:33.009Z,10.05
2018-06-23T00:53:33.040Z,9.91
2018-06-23T00:54:33.067Z,9.93
2018-06-23T00:55:33.101Z,9.91
2018-06-23T00:56:33.128Z,9.81
2018-06-23T00:57:33.158Z,9.94
2018-06-23T00:58:33.189Z,9.89
2018-06-23T00:59:33.219Z,9.91
2018-06-23T01:00:33.252Z,9.93
2018-06-23T01:01:33.279Z,9.97
2018-06-23T01:02:33.310Z,9.84
2018-06-23T01:03:33.341Z,9.90
2018-06-23T01:04:33.374Z,9.90
2018-06-23T01:05:33.400Z,9.86
2018-06-23T01:06:33.431Z,9.81
2018-06-23T01:07:33.462Z,9.69
2018-06-23T01:08:33.492Z,9.68
2018-06-23T01:09:33.522Z,9.71
2018-06-23T01:10:33.551Z,9.84
2018-06-23T01:11:33.582Z,9.81
2018-06-23T01:12:33.614Z,9.86
2018-06-23T01:13:33.643Z,9.91
2018-06-23T01:14:33.673Z,9.93
2018-06-23T01:15:33.704Z,9.96
2018-06-23T01:16:33.734Z,9.94
2018-06-23T01:17:33.764Z,9.97
2018-06-23T01:18:33.797Z,10.02
2018-06-23T01:19:33.824Z,9.93
2018-06-23T01:20:33.855Z,10.08
2018-06-23T01:21:33.885Z,10.08
2018-06-23T01:22:33.915Z,10.08
2018-06-23T01:23:33.947Z,10.08
2018-06-23T01:24:33.976Z,10.17
2018-06-23T01:25:34.005Z,10.05
2018-06-23T01:26:34.037Z,10.14
2018-06-23T01:27:34.066Z,10.04
2018-06-23T01:28:34.096Z,10.22
2018-06-23T01:29:34.128Z,10.23
2018-06-23T01:30:34.156Z,10.17
2018-06-23T01:31:34.186Z,10.17
2018-06-23T01:32:34.217Z,10.18
2018-06-23T01:33:34.246Z,10.17
2018-06-23T01:34:34.277Z,10.20
2018-06-23T01:35:34.309Z,10.05
2018-06-23T01:36:34.338Z,10.12
2018-06-23T01:37:34.367Z,10.05
2018-06-23T01:38:34.397Z,10.25
2018-06-23T01:39:34.428Z,10.11
2018-06-23T01:40:34.458Z,10.18
2018-06-23T01:41:34.487Z,10.11
2018-06-23T01:42:34.519Z,10.22
2018-06-23T01:43:34.549Z,10.09
2018-06-23T01:44:34.579Z,10.08
2018-06-23T01:45:34.608Z,10.08
2018-06-23T01:46:34.638Z,9.94
2018-06-23T01:47:34.669Z,9.97
2018-06-23T01:48:34.699Z,9.93
2018-06-23T01:49:34.728Z,9.89
2018-06-23T01:50:34.759Z,9.83
2018-06-23T01:51:34.789Z,9.79
2018-06-23T01:52:34.819Z,9.68
2018-06-23T01:53:34.848Z,9.81
2018-06-23T01:54:34.878Z,9.84
2018-06-23T01:55:34.909Z,9.93
2018-06-23T01:56:34.939Z,9.93
2018-06-23T01:57:34.969Z,9.94
2018-06-23T01:58:34.999Z,9.91
2018-06-23T01:59:35.030Z,9.74
2018-06-23T02:00:35.071Z,9.69
2018-06-23T02:01:35.090Z,9.54
2018-06-23T02:02:35.119Z,9.48
2018-06-23T02:03:35.150Z,9.43
2018-06-23T02:04:35.180Z,9.48
2018-06-23T02:05:35.209Z,9.43
2018-06-23T02:06:35.239Z,9.48
2018-06-23T02:07:35.276Z,9.42
2018-06-23T02:08:35.300Z,9.42
2018-06-23T02:09:35.329Z,9.43
2018-06-23T02:10:35.360Z,9.43
2018-06-23T02:11:35.389Z,9.51
2018-06-23T02:12:35.419Z,9.56
2018-06-23T02:13:35.452Z,9.53
2018-06-23T02:14:35.480Z,9.65
2018-06-23T02:15:35.511Z,9.72
2018-06-23T02:16:35.540Z,9.61
2018-06-23T02:17:35.569Z,9.74
2018-06-23T02:18:35.600Z,9.68
2018-06-23T02:19:35.631Z,9.64
2018-06-23T02:20:35.660Z,9.66
2018-06-23T02:21:35.689Z,9.66
2018-06-23T02:22:35.719Z,9.76
2018-06-23T02:23:35.749Z,9.81
2018-06-23T02:24:35.781Z,9.68
2018-06-23T02:25:35.809Z,9.81
2018-06-23T02:26:35.839Z,9.72
2018-06-23T02:27:35.869Z,9.72
2018-06-23T02:28:35.899Z,9.72
2018-06-23T02:29:35.928Z,9.65
2018-06-23T02:30:35.959Z,9.64
2018-06-23T02:31:36.000Z,9.51
2018-06-23T02:32:36.019Z,9.58
2018-06-23T02:33:36.048Z,9.53
2018-06-23T02:34:36.080Z,9.57
2018-06-23T02:35:36.107Z,9.71
2018-06-23T02:36:36.139Z,9.60
2018-06-23T02:37:36.168Z,9.71
2018-06-23T02:38:36.198Z,9.64
2018-06-23T02:39:36.228Z,9.66
2018-06-23T02:40:36.261Z,9.50
2018-06-23T02:41:36.287Z,9.50
2018-06-23T02:42:36.317Z,9.31
2018-06-23T02:43:36.347Z,9.20
2018-06-23T02:44:36.378Z,9.17
2018-06-23T02:45:36.407Z,9.13
2018-06-23T02:46:36.437Z,9.08
2018-06-23T02:47:36.467Z,9.26
2018-06-23T02:48:36.497Z,9.21
2018-06-23T02:49:36.526Z,9.21
2018-06-23T02:50:36.556Z,9.28
2018-06-23T02:51:36.585Z,9.26
2018-06-23T02:52:36.616Z,9.24
2018-06-23T02:53:36.645Z,9.33
2018-06-23T02:54:36.675Z,9.26
2018-06-23T02:55:36.705Z,9.21
2018-06-23T02:56:43.003Z,9.18
2018-06-23T02:57:36.764Z,9.28
2018-06-23T02:58:36.793Z,9.23
2018-06-23T02:59:36.826Z,9.33
2018-06-23T03:00:36.855Z,9.35
2018-06-23T03:01:36.895Z,9.28
2018-06-23T03:02:36.915Z,9.43
2018-06-23T03:03:36.945Z,9.54
2018-06-23T03:04:36.977Z,9.53
2018-06-23T03:05:37.003Z,9.57
2018-06-23T03:06:37.031Z,9.57
2018-06-23T03:07:37.063Z,9.65
2018-06-23T03:08:37.091Z,9.60
2018-06-23T03:09:37.124Z,9.58
2018-06-23T03:10:37.151Z,9.57
2018-06-23T03:11:37.183Z,9.58
2018-06-23T03:12:37.210Z,9.50
2018-06-23T03:13:37.241Z,9.50
2018-06-23T03:14:37.271Z,9.46
2018-06-23T03:15:37.301Z,9.56
2018-06-23T03:16:37.331Z,9.53
2018-06-23T03:17:37.360Z,9.50
2018-06-23T03:18:37.391Z,9.31
2018-06-23T03:19:37.420Z,9.26
2018-06-23T03:20:37.451Z,9.31
2018-06-23T03:21:37.482Z,9.23
2018-06-23T03:22:37.509Z,9.26
2018-06-23T03:23:37.539Z,8.99
2018-06-23T03:24:37.568Z,9.10
2018-06-23T03:25:37.597Z,9.04
2018-06-23T03:26:37.628Z,8.94
2018-06-23T03:27:37.657Z,8.86
2018-06-23T03:28:37.687Z,8.80
2018-06-23T03:29:37.717Z,8.86
2018-06-23T03:30:37.751Z,8.92
2018-06-23T03:31:37.776Z,8.89
2018-06-23T03:32:37.812Z,8.87
2018-06-23T03:33:37.837Z,8.92
2018-06-23T03:34:37.866Z,8.77
2018-06-23T03:35:37.896Z,8.98
2018-06-23T03:36:37.930Z,9.04
2018-06-23T03:37:37.959Z,9.10
2018-06-23T03:38:37.984Z,9.15
2018-06-23T03:39:38.013Z,9.17
2018-06-23T03:40:38.043Z,9.23
2018-06-23T03:41:38.073Z,9.24
2018-06-23T03:42:38.104Z,9.28
2018-06-23T03:43:38.136Z,9.24
2018-06-23T03:44:38.163Z,9.24
2018-06-23T03:45:38.192Z,9.28
2018-06-23T03:46:38.222Z,9.35
2018-06-23T03:47:38.252Z,9.20
2018-06-23T03:48:38.282Z,9.31
2018-06-23T03:49:38.311Z,9.31
2018-06-23T03:50:38.340Z,9.32
2018-06-23T03:51:38.370Z,9.31
2018-06-23T03:52:38.407Z,9.43
2018-06-23T03:53:38.429Z,9.40
2018-06-23T03:54:38.460Z,9.40
2018-06-23T03:55:38.490Z,9.46
2018-06-23T03:56:38.522Z,9.40
2018-06-23T03:57:38.549Z,9.38
2018-06-23T03:58:38.579Z,9.32
2018-06-23T03:59:38.609Z,9.29
2018-06-23T04:00:38.639Z,9.36
2018-06-23T04:01:38.668Z,9.47
2018-06-23T04:02:38.697Z,9.43
2018-06-23T04:03:38.728Z,9.40
2018-06-23T04:04:38.758Z,9.40
2018-06-23T04:05:38.787Z,9.38
2018-06-23T04:06:38.818Z,9.29
2018-06-23T04:07:38.845Z,9.35
2018-06-23T04:08:38.876Z,9.26
2018-06-23T04:09:38.904Z,9.18
2018-06-23T04:10:38.936Z,9.14
2018-06-23T04:11:38.966Z,9.01
2018-06-23T04:12:39.001Z,9.10
2018-06-23T04:13:39.025Z,9.04
2018-06-23T04:14:39.057Z,9.05
2018-06-23T04:15:39.086Z,9.23
2018-06-23T04:16:39.123Z,9.26
2018-06-23T04:17:39.147Z,9.23
2018-06-23T04:18:39.173Z,9.28
2018-06-23T04:19:39.205Z,9.36
2018-06-23T04:20:39.234Z,9.35
2018-06-23T04:21:39.263Z,9.36
2018-06-23T04:22:39.297Z,9.39
2018-06-23T04:23:39.323Z,9.31
2018-06-23T04:24:39.352Z,9.31
2018-06-23T04:25:39.383Z,9.40
2018-06-23T04:26:39.412Z,9.51
2018-06-23T04:27:39.446Z,9.43
2018-06-23T04:28:39.475Z,9.35
2018-06-23T04:29:39.503Z,9.42
2018-06-23T04:30:39.532Z,9.56
2018-06-23T04:31:39.563Z,9.54
2018-06-23T04:32:39.593Z,9.66
2018-06-23T04:33:39.622Z,9.64
2018-06-23T04:34:39.653Z,9.72
2018-06-23T04:35:39.684Z,9.75
2018-06-23T04:36:39.714Z,9.69
2018-06-23T04:37:39.743Z,9.65
2018-06-23T04:38:39.772Z,9.76
2018-06-23T04:39:39.804Z,9.66
2018-06-23T04:40:39.835Z,9.79
2018-06-23T04:41:39.866Z,9.87
2018-06-23T04:42:39.895Z,9.96
2018-06-23T04:43:39.925Z,9.97
2018-06-23T04:44:39.956Z,10.08
2018-06-23T04:45:39.986Z,10.11
2018-06-23T04:46:40.017Z,10.22
2018-06-23T04:47:40.045Z,10.18
2018-06-23T04:48:40.076Z,10.23
2018-06-23T04:49:40.108Z,10.33
2018-06-23T04:50:40.137Z,10.44
2018-06-23T04:51:40.167Z,10.48
2018-06-23T04:52:40.198Z,10.44
2018-06-23T04:53:40.227Z,10.56
2018-06-23T04:54:40.261Z,10.52
2018-06-23T04:55:40.289Z,10.53
2018-06-23T04:56:40.322Z,10.56
2018-06-23T04:57:40.352Z,10.63
2018-06-23T04:58:40.380Z,10.60
2018-06-23T04:59:40.410Z,10.63
2018-06-23T05:00:40.441Z,10.73
2018-06-23T05:01:40.470Z,10.82
2018-06-23T05:02:40.502Z,10.89
2018-06-23T05:03:40.535Z,11.00
2018-06-23T05:04:40.564Z,11.06
2018-06-23T05:05:40.595Z,11.09
2018-06-23T05:06:40.626Z,11.10
2018-06-23T05:07:40.654Z,11.15
2018-06-23T05:08:40.689Z,11.15
2018-06-23T05:09:40.715Z,11.25
2018-06-23T05:10:40.747Z,11.32
2018-06-23T05:11:40.778Z,11.36
2018-06-23T05:12:40.809Z,11.51
2018-06-23T05:13:40.838Z,11.46
2018-06-23T05:14:40.871Z,11.46
2018-06-23T05:15:40.900Z,11.54
2018-06-23T05:16:40.932Z,11.46
2018-06-23T05:17:40.962Z,11.51
2018-06-23T05:18:40.992Z,11.55
2018-06-23T05:19:41.023Z,11.52
2018-06-23T05:20:41.056Z,11.46
2018-06-23T05:21:41.085Z,11.51
2018-06-23T05:22:41.117Z,11.52
2018-06-23T05:23:41.147Z,11.54
2018-06-23T05:24:41.184Z,11.60
2018-06-23T05:25:41.209Z,11.61
2018-06-23T05:26:41.240Z,11.62
2018-06-23T05:27:41.270Z,11.58
2018-06-23T05:28:41.303Z,11.58
2018-06-23T05:29:41.332Z,11.54
2018-06-23T05:30:41.363Z,11.57
2018-06-23T05:31:41.426Z,11.72
2018-06-23T05:32:41.427Z,11.75
2018-06-23T05:33:41.459Z,11.80
2018-06-23T05:34:41.488Z,11.90
2018-06-23T05:35:41.523Z,11.95
2018-06-23T05:36:41.551Z,11.86
2018-06-23T05:37:41.626Z,11.91
2018-06-23T05:38:41.612Z,11.94
2018-06-23T05:39:41.645Z,12.01
2018-06-23T05:40:41.676Z,12.07
2018-06-23T05:41:41.707Z,12.12
2018-06-23T05:42:41.738Z,12.12
2018-06-23T05:43:41.769Z,12.09
2018-06-23T05:44:41.855Z,12.09
2018-06-23T05:45:41.836Z,12.14
2018-06-23T05:46:41.865Z,12.23
2018-06-23T05:47:41.896Z,12.21
2018-06-23T05:48:41.927Z,12.29
2018-06-23T05:49:41.958Z,12.45
2018-06-23T05:50:41.993Z,12.47
2018-06-23T05:51:42.023Z,12.50
2018-06-23T05:52:42.053Z,12.64
2018-06-23T05:53:42.087Z,12.62
2018-06-23T05:54:42.118Z,12.70
2018-06-23T05:55:42.149Z,12.75
2018-06-23T05:56:42.180Z,12.77
2018-06-23T05:57:42.213Z,12.82
2018-06-23T05:58:42.244Z,12.89
2018-06-23T05:59:42.277Z,12.93
2018-06-23T06:00:42.364Z,12.96
2018-06-23T06:01:42.340Z,13.10
2018-06-23T06:02:42.376Z,13.11
2018-06-23T06:03:42.405Z,13.12
2018-06-23T06:04:42.437Z,13.20
2018-06-23T06:05:42.468Z,13.19
2018-06-23T06:06:42.501Z,13.25
2018-06-23T06:07:42.533Z,13.32
2018-06-23T06:08:42.566Z,13.41
2018-06-23T06:09:42.596Z,13.42
2018-06-23T06:10:42.630Z,13.42
2018-06-23T06:11:42.674Z,13.30
2018-06-23T06:12:42.694Z,13.28
2018-06-23T06:13:42.726Z,13.30
2018-06-23T06:14:42.758Z,13.17
2018-06-23T06:15:42.791Z,13.25
2018-06-23T06:16:42.825Z,13.33
2018-06-23T06:17:42.855Z,13.44
2018-06-23T06:18:42.890Z,13.42
2018-06-23T06:19:42.921Z,13.49
2018-06-23T06:20:42.953Z,13.60
2018-06-23T06:21:42.985Z,13.57
2018-06-23T06:22:43.018Z,13.73
2018-06-23T06:23:43.098Z,13.91
2018-06-23T06:24:43.084Z,13.88
2018-06-23T06:25:43.115Z,13.92
2018-06-23T06:26:43.148Z,13.87
2018-06-23T06:27:43.184Z,14.03
2018-06-23T06:28:43.215Z,14.00
2018-06-23T06:29:43.246Z,13.97
2018-06-23T06:30:43.278Z,14.03
2018-06-23T06:31:43.312Z,14.03
2018-06-23T06:32:43.347Z,13.89
2018-06-23T06:33:43.377Z,14.04
2018-06-23T06:34:43.410Z,13.92
2018-06-23T06:35:43.458Z,14.04
2018-06-23T06:36:43.476Z,14.07
2018-06-23T06:37:43.508Z,14.18
2018-06-23T06:38:43.540Z,14.22
2018-06-23T06:39:43.574Z,14.32
2018-06-23T06:40:43.608Z,14.33
2018-06-23T06:41:43.640Z,14.33
2018-06-23T06:42:43.673Z,14.40
2018-06-23T06:43:43.707Z,14.43
2018-06-23T06:44:43.835Z,14.69
2018-06-23T06:45:43.772Z,14.84
2018-06-23T06:46:43.805Z,14.92
2018-06-23T06:47:43.839Z,14.92
2018-06-23T06:48:43.872Z,14.92
2018-06-23T06:49:43.908Z,15.03
2018-06-23T06:50:43.975Z,14.94
2018-06-23T06:51:43.971Z,14.88
2018-06-23T06:52:44.004Z,14.91
2018-06-23T06:53:44.037Z,14.88
2018-06-23T06:54:44.070Z,14.94
2018-06-23T06:55:44.103Z,14.99
2018-06-23T06:56:44.138Z,14.96
2018-06-23T06:57:44.170Z,15.10
2018-06-23T06:58:44.204Z,15.17
2018-06-23T06:59:44.239Z,15.11
2018-06-23T07:00:44.271Z,15.10
2018-06-23T07:01:44.304Z,15.11
2018-06-23T07:02:44.337Z,15.02
2018-06-23T07:03:44.371Z,15.09
2018-06-23T07:04:44.404Z,15.13
2018-06-23T07:05:44.438Z,15.35
2018-06-23T07:06:44.473Z,15.35
2018-06-23T07:07:44.505Z,15.38
2018-06-23T07:08:44.557Z,15.35
2018-06-23T07:09:44.573Z,15.46
2018-06-23T07:10:44.605Z,15.57
2018-06-23T07:11:44.640Z,15.59
2018-06-23T07:12:44.672Z,15.57
2018-06-23T07:13:44.708Z,15.69
2018-06-23T07:14:44.742Z,15.80
2018-06-23T07:15:44.775Z,15.92
2018-06-23T07:16:44.808Z,15.96
2018-06-23T07:17:44.904Z,15.92
2018-06-23T07:18:44.877Z,15.94
2018-06-23T07:19:44.910Z,16.09
2018-06-23T07:20:44.944Z,15.97
2018-06-23T07:21:44.978Z,15.97
2018-06-23T07:22:45.013Z,16.08
2018-06-23T07:23:45.090Z,16.07
2018-06-23T07:24:45.084Z,15.94
2018-06-23T07:25:45.113Z,15.94
2018-06-23T07:26:45.214Z,15.97
2018-06-23T07:27:45.183Z,16.09
2018-06-23T07:28:45.225Z,16.23
2018-06-23T07:29:45.251Z,16.33
2018-06-23T07:30:45.405Z,16.45
2018-06-23T07:31:45.319Z,16.43
2018-06-23T07:32:45.356Z,16.67
2018-06-23T07:33:45.388Z,16.68
2018-06-23T07:34:45.524Z,16.76
2018-06-23T07:35:45.457Z,16.88
2018-06-23T07:36:45.491Z,16.91
2018-06-23T07:37:45.525Z,16.82
2018-06-23T07:38:45.581Z,16.82
2018-06-23T07:39:45.618Z,16.89
2018-06-23T07:40:45.695Z,16.81
2018-06-23T07:41:45.680Z,16.64
2018-06-23T07:42:45.701Z,16.67
2018-06-23T07:43:45.734Z,16.94
2018-06-23T07:44:45.769Z,16.97
2018-06-23T07:45:45.802Z,16.93
2018-06-23T07:46:45.839Z,16.79
2018-06-23T07:47:45.870Z,16.89
2018-06-23T07:48:45.906Z,16.91
2018-06-23T07:49:45.940Z,17.06
2018-06-23T07:50:45.976Z,17.26
2018-06-23T07:51:46.011Z,17.56
2018-06-23T07:52:46.049Z,17.75
2018-06-23T07:53:46.080Z,17.86
2018-06-23T07:54:46.116Z,18.00
2018-06-23T07:55:46.151Z,18.08
2018-06-23T07:56:46.185Z,18.21
2018-06-23T07:57:46.220Z,18.32
2018-06-23T07:58:46.256Z,18.44
2018-06-23T07:59:46.291Z,18.29
2018-06-23T08:00:46.326Z,18.11
2018-06-23T08:01:46.361Z,17.92
2018-06-23T08:02:46.396Z,17.87
2018-06-23T08:03:46.432Z,17.84
2018-06-23T08:04:46.467Z,17.89
2018-06-23T08:05:46.502Z,18.05
2018-06-23T08:06:46.540Z,18.12
2018-06-23T08:07:46.572Z,18.20
2018-06-23T08:08:46.608Z,18.05
2018-06-23T08:09:46.642Z,18.41
2018-06-23T08:10:46.679Z,18.47
2018-06-23T08:11:46.734Z,18.47
2018-06-23T08:12:46.749Z,18.67
2018-06-23T08:13:46.785Z,18.80
2018-06-23T08:14:46.821Z,19.00
2018-06-23T08:15:46.857Z,19.10
2018-06-23T08:16:46.894Z,19.23
2018-06-23T08:17:46.929Z,19.41
2018-06-23T08:18:46.966Z,19.44
2018-06-23T08:19:47.001Z,19.50
2018-06-23T08:20:47.037Z,19.39
2018-06-23T08:21:47.073Z,19.32
2018-06-23T08:22:47.109Z,19.61
2018-06-23T08:23:47.146Z,19.66
2018-06-23T08:24:47.183Z,19.61
2018-06-23T08:25:47.221Z,19.84
2018-06-23T08:26:47.256Z,19.92
2018-06-23T08:27:47.290Z,19.99
2018-06-23T08:28:47.327Z,19.88
2018-06-23T08:29:47.363Z,19.71
2018-06-23T08:30:47.399Z,19.76
2018-06-23T08:31:47.454Z,19.94
2018-06-23T08:32:47.474Z,20.16
2018-06-23T08:33:47.509Z,20.28
2018-06-23T08:34:47.545Z,20.31
2018-06-23T08:35:47.582Z,20.10
2018-06-23T08:36:47.620Z,19.99
2018-06-23T08:37:47.700Z,20.13
2018-06-23T08:38:47.692Z,20.14
2018-06-23T08:39:47.729Z,20.33
2018-06-23T08:40:47.767Z,20.28
2018-06-23T08:41:47.805Z,19.92
2018-06-23T08:42:47.840Z,19.91
2018-06-23T08:43:47.908Z,19.76
2018-06-23T08:44:47.915Z,19.74
2018-06-23T08:45:47.950Z,19.46
2018-06-23T08:46:47.988Z,19.41
2018-06-23T08:47:48.024Z,19.54
2018-06-23T08:48:48.063Z,19.81
2018-06-23T08:49:48.099Z,20.10
2018-06-23T08:50:48.137Z,20.48
2018-06-23T08:51:48.175Z,20.48
2018-06-23T08:52:48.212Z,20.51
2018-06-23T08:53:48.248Z,20.74
2018-06-23T08:54:48.286Z,20.80
2018-06-23T08:55:48.325Z,20.47
2018-06-23T08:56:48.364Z,20.67
2018-06-23T08:57:48.396Z,20.80
2018-06-23T08:58:48.435Z,20.64
2018-06-23T08:59:48.472Z,19.84
2018-06-23T09:00:48.511Z,19.66
2018-06-23T09:01:48.590Z,19.74
2018-06-23T09:02:48.612Z,19.76
2018-06-23T09:03:48.623Z,19.98
2018-06-23T09:04:48.661Z,20.36
2018-06-23T09:05:48.697Z,20.79
2018-06-23T09:06:48.735Z,21.25
2018-06-23T09:07:48.773Z,21.28
2018-06-23T09:08:48.811Z,21.25
2018-06-23T09:09:48.849Z,21.35
2018-06-23T09:10:48.886Z,21.58
2018-06-23T09:11:48.924Z,21.83
2018-06-23T09:12:48.963Z,21.92
2018-06-23T09:13:48.999Z,22.10
2018-06-23T09:14:49.039Z,22.07
2018-06-23T09:15:49.077Z,22.02
2018-06-23T09:16:49.173Z,22.25
2018-06-23T09:17:49.153Z,22.39
2018-06-23T09:18:49.194Z,22.39
2018-06-23T09:19:49.231Z,22.10
2018-06-23T09:20:49.269Z,22.10
2018-06-23T09:21:49.306Z,22.21
2018-06-23T09:22:49.346Z,22.54
2018-06-23T09:23:49.385Z,22.49
2018-06-23T09:24:49.424Z,22.27
2018-06-23T09:25:49.486Z,22.18
2018-06-23T09:26:49.500Z,21.98
2018-06-23T09:27:49.540Z,21.86
2018-06-23T09:28:49.578Z,22.17
2018-06-23T09:29:49.618Z,22.28
2018-06-23T09:30:49.657Z,22.45
2018-06-23T09:31:49.697Z,22.57
2018-06-23T09:32:49.735Z,22.51
2018-06-23T09:33:49.773Z,22.12
2018-06-23T09:34:49.813Z,21.65
2018-06-23T09:35:49.851Z,21.27
2018-06-23T09:36:49.891Z,21.21
2018-06-23T09:37:49.930Z,21.06
2018-06-23T09:38:49.969Z,20.73
2018-06-23T09:39:50.008Z,21.06
2018-06-23T09:40:50.049Z,21.19
2018-06-23T09:41:50.085Z,21.68
2018-06-23T09:42:50.123Z,21.86
2018-06-23T09:43:50.162Z,22.05
2018-06-23T09:44:50.201Z,22.18
2018-06-23T09:45:50.286Z,22.15
2018-06-23T09:46:50.279Z,22.45
2018-06-23T09:47:50.318Z,22.39
2018-06-23T09:48:50.357Z,22.33
2018-06-23T09:49:50.394Z,22.12
2018-06-23T09:50:50.434Z,22.21
2018-06-23T09:51:50.476Z,22.28
2018-06-23T09:52:50.513Z,22.46
2018-06-23T09:53:50.551Z,22.57
2018-06-23T09:54:50.590Z,23.10
2018-06-23T09:55:50.662Z,23.57
2018-06-23T09:56:50.670Z,23.73
2018-06-23T09:57:50.708Z,23.01
2018-06-23T09:58:50.748Z,22.97
2018-06-23T09:59:50.794Z,23.28
2018-06-23T10:00:50.826Z,23.51
2018-06-23T10:01:50.867Z,23.70
2018-06-23T10:02:50.907Z,23.98
2018-06-23T10:03:50.946Z,24.00
2018-06-23T10:04:50.987Z,24.18
2018-06-23T10:05:51.028Z,24.27
2018-06-23T10:06:51.068Z,24.22
2018-06-23T10:07:51.106Z,24.46
2018-06-23T10:08:51.147Z,24.47
2018-06-23T10:09:51.190Z,24.45
2018-06-23T10:10:51.227Z,24.45
2018-06-23T10:11:51.267Z,24.57
2018-06-23T10:12:51.308Z,24.40
2018-06-23T10:13:51.352Z,24.53
2018-06-23T10:14:51.388Z,24.35
2018-06-23T10:15:51.429Z,24.39
2018-06-23T10:16:51.470Z,24.62
2018-06-23T10:17:51.509Z,24.90
2018-06-23T10:18:51.550Z,24.73
2018-06-23T10:19:51.592Z,24.62
2018-06-23T10:20:51.632Z,24.35
2018-06-23T10:21:51.672Z,24.16
2018-06-23T10:22:51.713Z,24.30
2018-06-23T10:23:51.754Z,24.55
2018-06-23T10:24:51.795Z,24.49
2018-06-23T10:25:51.835Z,24.58
2018-06-23T10:26:51.875Z,24.47
2018-06-23T10:27:51.917Z,24.76
2018-06-23T10:28:51.966Z,24.32
2018-06-23T10:29:51.999Z,24.15
2018-06-23T10:30:52.041Z,23.98
2018-06-23T10:31:52.080Z,24.00
2018-06-23T10:32:52.122Z,24.05
2018-06-23T10:33:52.162Z,24.31
2018-06-23T10:34:52.204Z,24.35
2018-06-23T10:35:52.245Z,24.30
2018-06-23T10:36:52.289Z,23.98
2018-06-23T10:37:52.326Z,23.16
2018-06-23T10:38:52.368Z,23.38
2018-06-23T10:39:52.411Z,23.72
2018-06-23T10:40:52.450Z,23.87
2018-06-23T10:41:52.490Z,24.00
2018-06-23T10:42:52.532Z,24.30
2018-06-23T10:43:52.573Z,24.71
2018-06-23T10:44:52.614Z,25.15
2018-06-23T10:45:52.655Z,25.52
2018-06-23T10:46:52.697Z,25.55
2018-06-23T10:47:52.739Z,25.95
2018-06-23T10:48:52.780Z,26.65
2018-06-23T10:49:52.820Z,26.70
2018-06-23T10:50:52.863Z,26.67
2018-06-23T10:51:52.907Z,27.36
2018-06-23T10:52:53.961Z,27.12
2018-06-23T10:53:52.991Z,27.27
2018-06-23T10:54:53.037Z,26.97
2018-06-23T10:55:53.079Z,27.40
2018-06-23T10:56:53.125Z,27.85
2018-06-23T10:57:53.199Z,27.47
2018-06-23T10:58:53.216Z,28.31
2018-06-23T10:59:53.262Z,28.85
2018-06-23T11:00:53.308Z,28.88
2018-06-23T11:01:53.353Z,28.06
2018-06-23T11:02:53.401Z,28.17
2018-06-23T11:03:53.450Z,28.11
2018-06-23T11:04:53.549Z,28.25
2018-06-23T11:05:53.545Z,27.90
2018-06-23T11:06:53.595Z,28.19
2018-06-23T11:07:53.643Z,28.03
2018-06-23T11:08:53.692Z,27.28
2018-06-23T11:09:53.739Z,27.04
2018-06-23T11:10:53.790Z,27.07
2018-06-23T11:11:53.839Z,27.49
2018-06-23T11:12:53.888Z,28.12
2018-06-23T11:13:53.938Z,28.09
2018-06-23T11:14:53.988Z,27.90
2018-06-23T11:15:54.095Z,28.21
2018-06-23T11:16:54.088Z,29.33
2018-06-23T11:17:54.140Z,28.06
2018-06-23T11:18:54.189Z,28.52
2018-06-23T11:19:54.240Z,27.90
2018-06-23T11:20:54.289Z,27.36
2018-06-23T11:21:54.340Z,27.25
2018-06-23T11:22:54.389Z,28.15
2018-06-23T11:23:54.442Z,29.28
2018-06-23T11:24:54.493Z,28.76
2018-06-23T11:25:54.543Z,29.06
2018-06-23T11:26:54.594Z,28.03
2018-06-23T11:27:54.645Z,28.56
2018-06-23T11:28:54.698Z,27.93
2018-06-23T11:29:54.747Z,27.19
2018-06-23T11:30:54.799Z,27.14
2018-06-23T11:31:54.851Z,28.36
2018-06-23T11:32:54.902Z,28.17
2018-06-23T11:33:54.953Z,28.40
2018-06-23T11:34:55.005Z,28.12
2018-06-23T11:35:55.060Z,28.78
2018-06-23T11:36:55.107Z,28.89
2018-06-23T11:37:55.160Z,27.85
2018-06-23T11:38:55.209Z,27.39
2018-06-23T11:39:55.261Z,27.77
2018-06-23T11:40:55.313Z,29.16
2018-06-23T11:41:55.365Z,29.83
2018-06-23T11:42:55.415Z,28.95
2018-06-23T11:43:55.467Z,28.83
2018-06-23T11:44:55.517Z,29.33
2018-06-23T11:45:55.570Z,29.60
2018-06-23T11:46:55.621Z,30.38
2018-06-23T11:47:55.674Z,29.98
2018-06-23T11:48:55.726Z,30.34
2018-06-23T11:49:55.778Z,31.19
2018-06-23T11:50:55.828Z,32.14
2018-06-23T11:51:55.881Z,32.44
2018-06-23T11:52:55.933Z,33.37
2018-06-23T11:53:55.985Z,33.26
2018-06-23T11:54:56.037Z,33.01
2018-06-23T11:55:56.089Z,33.12
2018-06-23T11:56:56.141Z,33.51
2018-06-23T11:57:56.194Z,33.19
2018-06-23T11:58:56.246Z,33.31
2018-06-23T11:59:56.300Z,32.28
2018-06-23T12:00:56.352Z,32.44
2018-06-23T12:01:56.581Z,32.44
2018-06-23T12:02:56.456Z,32.40
2018-06-23T12:03:56.510Z,32.23
2018-06-23T12:04:56.562Z,32.65
2018-06-23T12:05:56.614Z,32.57
2018-06-23T12:06:56.666Z,31.21
2018-06-23T12:07:56.725Z,31.48
2018-06-23T12:08:56.773Z,31.20
2018-06-23T12:09:56.825Z,30.97
2018-06-23T12:10:56.878Z,31.23
2018-06-23T12:11:56.933Z,31.21
2018-06-23T12:12:56.984Z,30.67
2018-06-23T12:13:57.643Z,31.04
2018-06-23T12:14:57.090Z,31.31
2018-06-23T12:15:57.146Z,30.69
2018-06-23T12:16:57.200Z,31.46
2018-06-23T12:17:57.250Z,30.86
2018-06-23T12:18:57.304Z,30.42
2018-06-23T12:19:57.355Z,29.64
2018-06-23T12:20:57.409Z,29.67
2018-06-23T12:21:57.462Z,29.97
2018-06-23T12:22:57.513Z,28.85
2018-06-23T12:23:57.568Z,29.82
2018-06-23T12:24:57.622Z,29.78
2018-06-23T12:25:57.673Z,30.58
2018-06-23T12:26:57.727Z,31.73
2018-06-23T12:27:57.781Z,32.25
2018-06-23T12:28:57.833Z,32.10
2018-06-23T12:29:57.885Z,31.17
2018-06-23T12:30:57.937Z,30.70
2018-06-23T12:31:57.992Z,30.84
2018-06-23T12:32:58.046Z,31.25
2018-06-23T12:33:58.097Z,31.34
2018-06-23T12:34:58.151Z,31.50
2018-06-23T12:36:40.768Z,31.44
2018-06-23T12:37:40.825Z,31.07
2018-06-23T12:38:40.874Z,32.23
2018-06-23T12:39:40.927Z,32.50
2018-06-23T12:40:40.980Z,32.66
2018-06-23T12:41:41.165Z,32.87
2018-06-23T12:42:41.088Z,33.26
2018-06-23T12:43:41.139Z,33.26
2018-06-23T12:44:41.192Z,32.96
2018-06-23T12:45:41.245Z,33.11
2018-06-23T12:46:41.297Z,32.55
2018-06-23T12:47:41.351Z,32.19
2018-06-23T12:48:41.404Z,32.30
2018-06-23T12:49:41.457Z,32.45
2018-06-23T12:50:41.508Z,32.25
2018-06-23T12:51:41.561Z,32.41
2018-06-23T12:52:41.616Z,32.75
2018-06-23T12:53:41.666Z,31.28
2018-06-23T12:54:41.720Z,31.28
2018-06-23T12:55:41.772Z,29.95
2018-06-23T12:56:41.823Z,29.89
2018-06-23T12:57:41.879Z,30.01
2018-06-23T12:58:41.930Z,29.80
2018-06-23T12:59:41.982Z,30.20
2018-06-23T13:00:42.034Z,29.65